createdAt,value
2023-05-14T00:01:20.888Z,10.53
2023-05-14T00:04:13.821Z,10.47
2023-05-14T00:07:06.857Z,10.53
2023-05-14T00:10:00.350Z,10.37
2023-05-14T00:12:52.766Z,10.32
2023-05-14T00:15:46.218Z,10.41
2023-05-14T00:18:40.207Z,10.48
2023-05-14T00:21:33.506Z,10.76
2023-05-14T00:24:26.690Z,10.92
2023-05-14T00:27:19.812Z,10.88
2023-05-14T00:30:13.268Z,10.77
2023-05-14T00:36:19.408Z,10.31
2023-05-14T00:39:12.416Z,10.15
2023-05-14T00:42:05.116Z,9.91
2023-05-14T00:44:57.630Z,9.72
2023-05-14T00:47:51.090Z,9.77
2023-05-14T00:53:57.422Z,10.28
2023-05-14T00:56:49.637Z,10.23
2023-05-14T00:59:43.747Z,10.10
2023-05-14T01:02:36.497Z,9.88
2023-05-14T01:05:35.607Z,9.65
2023-05-14T01:08:33.730Z,9.60
2023-05-14T01:11:31.280Z,9.52
2023-05-14T01:14:52.102Z,9.75
2023-05-14T01:17:48.026Z,10.05
2023-05-14T01:20:40.777Z,10.06
2023-05-14T01:23:34.922Z,9.92
2023-05-14T01:26:27.955Z,9.53
2023-05-14T01:29:23.511Z,9.77
2023-05-14T01:32:16.739Z,9.91
2023-05-14T01:35:10.571Z,9.87
2023-05-14T01:38:07.856Z,9.74
2023-05-14T01:44:15.086Z,9.44
2023-05-14T01:50:24.261Z,9.20
2023-05-14T01:53:17.035Z,8.98
2023-05-14T01:56:09.690Z,8.95
2023-05-14T01:59:02.738Z,8.83
2023-05-14T02:01:57.208Z,9.00
2023-05-14T02:04:50.414Z,9.33
2023-05-14T02:08:12.077Z,9.05
2023-05-14T02:11:04.821Z,8.86
2023-05-14T02:13:57.783Z,9.19
2023-05-14T02:16:51.228Z,9.26
2023-05-14T02:19:45.095Z,9.19
2023-05-14T02:22:38.457Z,8.90
2023-05-14T02:25:30.415Z,8.87
2023-05-14T02:28:22.771Z,9.02
2023-05-14T02:31:17.582Z,9.23
2023-05-14T02:34:10.902Z,9.24
2023-05-14T02:37:05.125Z,9.22
2023-05-14T02:39:57.645Z,9.13
2023-05-14T02:46:19.848Z,9.01
2023-05-14T02:49:49.968Z,8.97
2023-05-14T02:52:44.004Z,8.48
2023-05-14T02:55:37.289Z,8.38
2023-05-14T02:58:32.241Z,8.46
2023-05-14T03:04:46.637Z,8.85
2023-05-14T03:07:39.801Z,8.77
2023-05-14T03:10:33.996Z,8.75
2023-05-14T03:16:39.962Z,8.69
2023-05-14T03:19:32.929Z,8.68
2023-05-14T03:25:39.436Z,8.66
2023-05-14T03:28:31.664Z,8.65
2023-05-14T03:31:25.890Z,8.63
2023-05-14T03:34:18.915Z,8.53
2023-05-14T03:37:12.161Z,8.40
2023-05-14T03:40:05.427Z,8.30
2023-05-14T03:42:58.856Z,8.32
2023-05-14T03:45:52.519Z,8.39
2023-05-14T03:49:11.244Z,8.12
2023-05-14T03:52:03.998Z,8.26
2023-05-14T03:54:57.020Z,8.51
2023-05-14T03:57:49.871Z,8.34
2023-05-14T04:00:44.495Z,8.64
2023-05-14T04:03:37.018Z,8.81
2023-05-14T04:06:29.810Z,8.85
2023-05-14T04:09:23.303Z,8.94
2023-05-14T04:12:16.790Z,9.17
2023-05-14T04:15:10.690Z,9.25
2023-05-14T04:18:05.377Z,9.17
2023-05-14T04:20:58.854Z,9.09
2023-05-14T04:23:51.962Z,9.33
2023-05-14T04:26:44.995Z,9.58
2023-05-14T04:29:37.949Z,9.65
2023-05-14T04:32:31.071Z,9.70
2023-05-14T04:35:26.888Z,9.76
2023-05-14T04:38:19.828Z,9.62
2023-05-14T04:41:12.844Z,9.49
2023-05-14T04:47:16.639Z,9.78
2023-05-14T04:53:27.412Z,10.22
2023-05-14T04:56:20.721Z,10.34
2023-05-14T04:59:13.958Z,10.85
2023-05-14T05:05:25.783Z,11.77
2023-05-14T05:08:19.036Z,12.22
2023-05-14T05:11:15.702Z,12.54
2023-05-14T05:14:09.034Z,13.22
2023-05-14T05:17:01.566Z,14.30
2023-05-14T05:19:53.906Z,15.76
2023-05-14T05:22:46.840Z,17.31
2023-05-14T05:25:39.891Z,18.79
2023-05-14T05:31:45.402Z,21.47
2023-05-14T05:34:37.518Z,22.19
2023-05-14T05:37:29.473Z,23.18
2023-05-14T05:40:21.734Z,24.40
2023-05-14T05:43:16.004Z,24.40
2023-05-14T05:46:08.770Z,25.14
2023-05-14T05:49:02.820Z,25.27
2023-05-14T05:55:00.910Z,23.62
2023-05-14T06:01:11.085Z,22.88
2023-05-14T06:07:21.392Z,24.34
2023-05-14T06:10:13.923Z,25.12
2023-05-14T06:16:52.523Z,27.00
2023-05-14T06:19:44.816Z,28.33
2023-05-14T06:22:39.060Z,28.27
2023-05-14T06:25:31.644Z,27.29
2023-05-14T06:28:25.137Z,28.79
2023-05-14T06:31:17.947Z,28.86
2023-05-14T06:34:35.846Z,28.81
2023-05-14T06:37:28.752Z,29.63
2023-05-14T06:43:35.534Z,28.34
2023-05-14T06:46:27.656Z,28.97
2023-05-14T06:49:21.103Z,27.76
2023-05-14T06:52:13.686Z,26.04
2023-05-14T06:55:07.594Z,26.86
2023-05-14T06:57:59.618Z,27.47
2023-05-14T07:00:53.081Z,27.76
2023-05-14T07:06:59.074Z,28.01
2023-05-14T07:09:52.040Z,28.29
2023-05-14T07:12:45.109Z,28.24
2023-05-14T07:15:39.441Z,27.16
2023-05-14T07:18:32.763Z,25.70
2023-05-14T07:21:26.069Z,25.81
2023-05-14T07:24:16.935Z,26.21
2023-05-14T07:27:12.489Z,25.24
2023-05-14T07:30:05.311Z,24.50
2023-05-14T07:32:57.744Z,23.91
2023-05-14T07:39:04.554Z,23.18
2023-05-14T07:45:10.508Z,22.77
2023-05-14T07:51:19.167Z,22.16
2023-05-14T07:54:13.307Z,22.16
2023-05-14T07:56:59.360Z,21.38
2023-05-14T07:59:52.002Z,21.58
2023-05-14T08:02:44.940Z,22.71
2023-05-14T08:05:37.918Z,22.76
2023-05-14T08:08:30.584Z,22.30
2023-05-14T08:11:24.059Z,22.69
2023-05-14T08:14:16.972Z,23.46
2023-05-14T08:17:10.005Z,23.74
2023-05-14T08:20:02.933Z,23.95
2023-05-14T08:22:56.875Z,25.17
2023-05-14T08:25:49.825Z,25.71
2023-05-14T08:28:44.495Z,27.18
2023-05-14T08:31:37.133Z,26.59
2023-05-14T08:34:29.734Z,27.04
2023-05-14T08:37:22.670Z,26.80
2023-05-14T08:40:15.661Z,26.64
2023-05-14T08:43:12.785Z,26.82
2023-05-14T08:46:07.690Z,26.19
2023-05-14T08:49:08.752Z,25.76
2023-05-14T08:55:23.496Z,26.43
2023-05-14T08:58:16.121Z,27.24
2023-05-14T09:01:09.851Z,26.78
2023-05-14T09:07:15.815Z,28.48
2023-05-14T09:10:10.114Z,28.32
2023-05-14T09:16:17.844Z,28.49
2023-05-14T09:19:11.343Z,28.60
2023-05-14T09:22:09.559Z,30.45
2023-05-14T09:25:09.183Z,28.34
2023-05-14T09:28:06.806Z,27.79
2023-05-14T09:30:59.536Z,27.43
2023-05-14T09:33:53.878Z,28.04
2023-05-14T09:36:51.244Z,28.31
2023-05-14T09:39:43.919Z,26.48
2023-05-14T09:45:49.498Z,26.28
2023-05-14T09:48:41.858Z,25.13
2023-05-14T09:51:38.085Z,25.37
2023-05-14T09:57:52.079Z,24.87
2023-05-14T10:04:31.034Z,25.44
2023-05-14T10:07:28.481Z,24.85
2023-05-14T10:10:22.093Z,25.99
2023-05-14T10:16:38.878Z,26.12
2023-05-14T10:19:34.132Z,26.00
2023-05-14T10:25:39.170Z,25.45
2023-05-14T10:31:49.601Z,24.94
2023-05-14T10:37:58.156Z,27.46
2023-05-14T10:40:54.077Z,27.78
2023-05-14T10:43:46.806Z,28.26
2023-05-14T10:46:34.767Z,28.22
2023-05-14T10:49:42.468Z,27.64
2023-05-14T10:52:36.253Z,28.12
2023-05-14T10:55:28.677Z,28.47
2023-05-14T10:58:22.375Z,27.83
2023-05-14T11:01:15.282Z,27.62
2023-05-14T11:04:09.117Z,28.67
2023-05-14T11:07:08.637Z,27.80
2023-05-14T11:10:03.330Z,27.82
2023-05-14T11:12:57.073Z,27.55
2023-05-14T11:15:51.566Z,28.04
2023-05-14T11:18:44.111Z,27.82
2023-05-14T11:21:36.918Z,27.71
2023-05-14T11:24:29.549Z,26.81
2023-05-14T11:27:23.257Z,27.31
2023-05-14T11:30:17.176Z,26.72
2023-05-14T11:33:11.492Z,27.37
2023-05-14T11:36:04.177Z,26.73
2023-05-14T11:42:14.623Z,27.92
2023-05-14T11:48:24.951Z,30.83
2023-05-14T11:51:18.267Z,32.09
2023-05-14T11:54:11.090Z,31.58
2023-05-14T11:57:04.657Z,31.31
2023-05-14T11:59:58.211Z,32.15
2023-05-14T12:02:51.133Z,30.06
2023-05-14T12:05:57.561Z,30.17
2023-05-14T12:08:50.149Z,31.00
2023-05-14T12:11:42.948Z,30.91
2023-05-14T12:14:40.048Z,29.15
2023-05-14T12:17:33.686Z,29.13
2023-05-14T12:24:13.698Z,27.75
2023-05-14T12:27:06.545Z,28.61
2023-05-14T12:30:18.996Z,29.31
2023-05-14T12:33:13.294Z,28.81
2023-05-14T12:36:20.692Z,29.11
2023-05-14T12:39:16.182Z,29.22
2023-05-14T12:42:09.100Z,29.83
2023-05-14T12:45:05.309Z,30.56
2023-05-14T12:47:57.730Z,29.84
2023-05-14T12:50:51.029Z,30.44
2023-05-14T12:53:44.128Z,30.00
2023-05-14T12:56:39.039Z,30.27
2023-05-14T12:59:31.617Z,29.29
2023-05-14T13:02:23.765Z,29.50
2023-05-14T13:05:17.253Z,28.43
2023-05-14T13:08:10.368Z,28.41
2023-05-14T13:11:02.885Z,27.75
2023-05-14T13:13:56.872Z,27.00
2023-05-14T13:16:53.602Z,26.59
2023-05-14T13:19:45.866Z,25.71
2023-05-14T13:22:39.165Z,25.38
2023-05-14T13:25:31.643Z,25.51
2023-05-14T13:28:24.203Z,24.99
2023-05-14T13:31:18.310Z,25.43
2023-05-14T13:34:25.076Z,25.82
2023-05-14T13:37:19.714Z,25.92
2023-05-14T13:43:34.203Z,25.66
2023-05-14T13:49:54.035Z,25.78
2023-05-14T13:52:46.739Z,25.99
2023-05-14T13:55:38.786Z,25.80
2023-05-14T14:01:44.209Z,26.22
2023-05-14T14:08:00.972Z,27.14
2023-05-14T14:11:01.148Z,27.84
2023-05-14T14:13:53.900Z,27.79
2023-05-14T14:16:47.081Z,28.89
2023-05-14T14:19:40.723Z,28.30
2023-05-14T14:25:49.106Z,29.11
2023-05-14T14:31:58.278Z,29.09
2023-05-14T14:38:07.188Z,28.96
2023-05-14T14:44:17.538Z,25.99
2023-05-14T14:47:09.757Z,24.45
2023-05-14T14:50:01.887Z,23.84
2023-05-14T14:52:55.151Z,24.15
2023-05-14T14:55:48.360Z,23.14
2023-05-14T14:58:40.782Z,22.85
2023-05-14T15:01:35.300Z,22.00
2023-05-14T15:04:29.812Z,21.64
2023-05-14T15:07:22.893Z,21.56
2023-05-14T15:10:16.217Z,22.55
2023-05-14T15:16:25.306Z,22.48
2023-05-14T15:22:30.283Z,21.59
2023-05-14T15:25:24.409Z,20.98
2023-05-14T15:28:23.407Z,20.56
2023-05-14T15:31:16.706Z,20.62
2023-05-14T15:34:10.286Z,20.74
2023-05-14T15:37:04.214Z,20.88
2023-05-14T15:39:56.852Z,21.13
2023-05-14T15:42:49.772Z,21.33
2023-05-14T15:45:42.101Z,21.47
2023-05-14T15:48:35.849Z,21.52
2023-05-14T15:51:29.056Z,21.89
2023-05-14T15:54:23.368Z,22.53
2023-05-14T15:57:40.750Z,22.86
2023-05-14T16:00:33.161Z,23.27
2023-05-14T16:06:20.131Z,23.05
2023-05-14T16:12:23.567Z,23.14
2023-05-14T16:18:32.143Z,23.13
2023-05-14T16:21:26.308Z,22.89
2023-05-14T16:24:19.423Z,22.96
2023-05-14T16:27:11.434Z,23.28
2023-05-14T16:30:04.347Z,23.29
2023-05-14T16:32:56.913Z,23.36
2023-05-14T16:35:50.417Z,23.42
2023-05-14T16:38:57.165Z,23.41
2023-05-14T16:41:56.593Z,23.21
2023-05-14T16:44:49.033Z,22.68
2023-05-14T16:47:41.630Z,22.77
2023-05-14T16:50:34.968Z,22.76
2023-05-14T16:56:41.851Z,22.31
2023-05-14T17:02:48.943Z,22.07
2023-05-14T17:05:41.766Z,22.14
2023-05-14T17:08:35.671Z,22.04
2023-05-14T17:11:29.049Z,22.07
2023-05-14T17:14:23.336Z,22.01
2023-05-14T17:17:15.645Z,21.94
2023-05-14T17:20:05.571Z,21.84
2023-05-14T17:22:58.699Z,21.88
2023-05-14T17:25:51.951Z,21.69
2023-05-14T17:28:44.762Z,21.55
2023-05-14T17:31:39.285Z,21.45
2023-05-14T17:34:31.588Z,21.51
2023-05-14T17:37:25.183Z,21.38
2023-05-14T17:43:38.880Z,20.46
2023-05-14T17:46:33.513Z,20.21
2023-05-14T17:49:27.151Z,19.49
2023-05-14T17:52:20.071Z,19.44
2023-05-14T17:55:12.880Z,19.61
2023-05-14T17:58:05.696Z,19.69
2023-05-14T18:00:58.465Z,19.20
2023-05-14T18:03:57.824Z,19.00
2023-05-14T18:06:53.101Z,19.19
2023-05-14T18:09:45.912Z,19.31
2023-05-14T18:12:39.067Z,19.27
2023-05-14T18:15:32.155Z,19.25
2023-05-14T18:18:24.531Z,19.20
2023-05-14T18:21:16.818Z,19.22
2023-05-14T18:27:23.452Z,19.15
2023-05-14T18:33:33.510Z,18.54
2023-05-14T18:36:25.905Z,17.86
2023-05-14T18:39:15.849Z,17.47
2023-05-14T18:42:09.810Z,17.18
2023-05-14T18:45:04.379Z,17.07
2023-05-14T18:47:57.235Z,16.94
2023-05-14T18:54:10.818Z,16.63
2023-05-14T18:57:03.955Z,16.70
2023-05-14T18:59:56.890Z,16.57
2023-05-14T19:03:07.030Z,16.43
2023-05-14T19:05:58.159Z,16.25
2023-05-14T19:08:51.635Z,16.21
2023-05-14T19:15:07.212Z,16.05
2023-05-14T19:17:59.903Z,16.06
2023-05-14T19:20:53.566Z,15.97
2023-05-14T19:23:48.074Z,15.86
2023-05-14T19:26:40.459Z,15.72
2023-05-14T19:29:33.667Z,15.51
2023-05-14T19:32:26.940Z,15.57
2023-05-14T19:35:19.736Z,15.67
2023-05-14T19:38:13.492Z,15.84
2023-05-14T19:41:06.849Z,15.76
2023-05-14T19:43:59.557Z,15.85
2023-05-14T19:46:51.838Z,15.82
2023-05-14T19:49:44.964Z,15.70
2023-05-14T19:52:37.803Z,15.84
2023-05-14T19:55:31.227Z,15.83
2023-05-14T19:58:25.398Z,15.93
2023-05-14T20:04:39.920Z,15.64
2023-05-14T20:07:33.279Z,15.57
2023-05-14T20:10:26.091Z,15.25
2023-05-14T20:13:19.085Z,15.20
2023-05-14T20:16:13.511Z,14.75
2023-05-14T20:19:05.767Z,14.75
2023-05-14T20:25:10.500Z,14.48
2023-05-14T20:28:02.671Z,14.07
2023-05-14T20:30:58.563Z,13.94
2023-05-14T20:33:52.034Z,14.06
2023-05-14T20:37:22.038Z,14.39
2023-05-14T20:40:15.002Z,14.34
2023-05-14T20:43:08.004Z,14.37
2023-05-14T20:46:01.324Z,14.18
2023-05-14T20:52:16.255Z,14.10
2023-05-14T20:55:09.654Z,13.92
2023-05-14T20:58:01.690Z,14.23
2023-05-14T21:04:07.881Z,14.26
2023-05-14T21:07:02.546Z,14.22
2023-05-14T21:13:08.071Z,14.19
2023-05-14T21:16:00.784Z,14.12
2023-05-14T21:18:53.922Z,14.10
2023-05-14T21:21:47.313Z,14.12
2023-05-14T21:27:52.055Z,14.10
2023-05-14T21:30:46.401Z,13.97
2023-05-14T21:33:40.651Z,13.77
2023-05-14T21:36:33.726Z,13.83
2023-05-14T21:39:26.909Z,13.75
2023-05-14T21:42:20.907Z,13.73
2023-05-14T21:48:27.532Z,13.78
2023-05-14T21:51:20.006Z,13.42
2023-05-14T21:54:13.933Z,13.44
2023-05-14T21:57:06.868Z,13.45
2023-05-14T21:59:59.902Z,12.91
2023-05-14T22:02:53.675Z,12.96
2023-05-14T22:05:49.069Z,12.69
2023-05-14T22:08:42.230Z,12.64
2023-05-14T22:11:35.160Z,12.75
2023-05-14T22:14:27.861Z,12.75
2023-05-14T22:17:21.674Z,12.63
2023-05-14T22:20:15.076Z,12.15
2023-05-14T22:23:09.132Z,12.20
2023-05-14T22:26:01.497Z,12.31
2023-05-14T22:28:53.815Z,12.43
2023-05-14T22:31:46.879Z,12.42
2023-05-14T22:34:39.671Z,12.33
2023-05-14T22:37:32.697Z,12.02
2023-05-14T22:40:27.188Z,11.68
2023-05-14T22:43:19.985Z,11.48
2023-05-14T22:46:13.309Z,11.43
2023-05-14T22:49:05.837Z,11.55
2023-05-14T22:51:58.829Z,11.45
2023-05-14T22:54:52.066Z,11.57
2023-05-14T22:57:46.195Z,11.68
2023-05-14T23:00:38.716Z,11.75
2023-05-14T23:06:46.236Z,11.31
2023-05-14T23:12:57.473Z,10.80
2023-05-14T23:19:06.338Z,11.14
2023-05-14T23:25:15.305Z,11.14
2023-05-14T23:28:09.486Z,11.22
2023-05-14T23:31:00.860Z,11.10
2023-05-14T23:33:54.090Z,11.25
2023-05-14T23:36:40.756Z,11.49
2023-05-14T23:39:26.848Z,11.37
2023-05-14T23:42:12.879Z,11.39
2023-05-14T23:48:12.475Z,11.41
2023-05-14T23:50:58.569Z,11.32
2023-05-14T23:53:56.155Z,11.28
2023-05-14T23:56:42.157Z,10.86
2023-05-14T23:59:28.292Z,11.00
